createdAt,value
2018-10-05T00:05:07.846Z,99.90
2018-10-05T00:07:38.670Z,99.90
2018-10-05T00:10:09.509Z,99.90
2018-10-05T00:12:40.410Z,99.90
2018-10-05T00:15:10.937Z,99.90
2018-10-05T00:17:44.899Z,99.90
2018-10-05T00:20:15.720Z,99.90
2018-10-05T00:22:46.349Z,99.90
2018-10-05T00:25:16.860Z,99.90
2018-10-05T00:27:47.534Z,99.90
2018-10-05T00:30:19.350Z,99.90
2018-10-05T00:32:50.208Z,99.90
2018-10-05T00:35:20.933Z,99.90
2018-10-05T00:37:51.871Z,99.90
2018-10-05T00:40:23.067Z,99.90
2018-10-05T00:42:53.969Z,99.90
2018-10-05T00:45:25.079Z,99.90
2018-10-05T00:47:56.563Z,99.90
2018-10-05T00:50:27.154Z,99.90
2018-10-05T00:52:58.772Z,99.90
2018-10-05T00:55:29.581Z,99.90
2018-10-05T00:58:01.165Z,99.90
2018-10-05T01:00:32.860Z,99.90
2018-10-05T01:03:03.452Z,99.90
2018-10-05T01:05:34.246Z,99.90
2018-10-05T01:08:05.341Z,99.90
2018-10-05T01:10:35.801Z,99.90
2018-10-05T01:13:06.791Z,99.90
2018-10-05T01:15:37.991Z,99.90
2018-10-05T01:18:10.077Z,99.90
2018-10-05T01:20:40.623Z,99.90
2018-10-05T01:23:11.886Z,99.90
2018-10-05T01:25:42.670Z,99.90
2018-10-05T01:28:23.373Z,99.90
2018-10-05T01:30:54.010Z,99.90
2018-10-05T01:33:24.832Z,99.90
2018-10-05T01:35:55.711Z,99.90
2018-10-05T01:38:26.273Z,99.90
2018-10-05T01:40:57.182Z,99.90
2018-10-05T01:43:28.156Z,99.90
2018-10-05T01:45:59.474Z,99.90
2018-10-05T01:48:30.373Z,99.90
2018-10-05T01:51:02.369Z,99.90
2018-10-05T01:53:33.506Z,99.90
2018-10-05T01:56:05.387Z,99.90
2018-10-05T01:58:37.285Z,99.90
2018-10-05T02:01:08.655Z,99.90
2018-10-05T02:03:39.292Z,99.90
2018-10-05T02:06:10.257Z,99.90
2018-10-05T02:08:41.925Z,99.90
2018-10-05T02:11:13.058Z,99.90
2018-10-05T02:13:44.458Z,99.90
2018-10-05T02:16:15.800Z,99.90
2018-10-05T02:18:46.670Z,99.90
2018-10-05T02:21:18.019Z,99.90
2018-10-05T02:23:48.983Z,99.90
2018-10-05T02:26:19.734Z,99.90
2018-10-05T02:28:50.869Z,99.90
2018-10-05T02:31:21.731Z,99.90
2018-10-05T02:33:52.519Z,99.90
2018-10-05T02:36:23.746Z,99.90
2018-10-05T02:38:54.729Z,99.90
2018-10-05T02:41:25.372Z,99.90
2018-10-05T02:43:56.070Z,99.90
2018-10-05T02:46:27.436Z,99.90
2018-10-05T02:48:58.548Z,99.90
2018-10-05T02:51:29.246Z,99.90
2018-10-05T02:54:00.428Z,99.90
2018-10-05T02:56:31.270Z,99.90
2018-10-05T02:59:02.263Z,99.90
2018-10-05T03:01:43.472Z,99.90
2018-10-05T03:04:14.352Z,99.90
2018-10-05T03:06:45.470Z,99.90
2018-10-05T03:09:16.730Z,99.90
2018-10-05T03:11:48.230Z,99.90
2018-10-05T03:14:19.412Z,99.90
2018-10-05T03:16:50.367Z,99.90
2018-10-05T03:19:21.387Z,99.90
2018-10-05T03:21:52.698Z,99.90
2018-10-05T03:24:23.585Z,99.90
2018-10-05T03:26:54.831Z,99.90
2018-10-05T03:29:25.384Z,99.90
2018-10-05T03:31:56.387Z,99.90
2018-10-05T03:34:27.981Z,99.90
2018-10-05T03:36:59.032Z,99.90
2018-10-05T03:39:30.193Z,99.90
2018-10-05T03:42:01.622Z,99.90
2018-10-05T03:44:32.360Z,99.90
2018-10-05T03:47:03.396Z,99.90
2018-10-05T03:49:34.918Z,99.90
2018-10-05T03:52:05.692Z,99.90
2018-10-05T03:54:37.053Z,99.90
2018-10-05T03:57:10.019Z,99.90
2018-10-05T03:59:41.950Z,99.90
2018-10-05T04:02:13.510Z,99.90
2018-10-05T04:04:48.414Z,99.90
2018-10-05T04:07:19.938Z,99.90
2018-10-05T04:09:50.976Z,99.90
2018-10-05T04:12:21.900Z,99.90
2018-10-05T04:14:53.058Z,99.90
2018-10-05T04:17:25.106Z,99.90
2018-10-05T04:19:56.825Z,99.90
2018-10-05T04:22:30.907Z,99.90
2018-10-05T04:25:03.766Z,99.90
2018-10-05T04:27:35.773Z,99.90
2018-10-05T04:30:07.093Z,99.90
2018-10-05T04:32:38.735Z,99.90
2018-10-05T04:35:10.281Z,99.90
2018-10-05T04:37:41.635Z,99.90
2018-10-05T04:40:13.289Z,99.90
2018-10-05T04:42:45.183Z,99.90
2018-10-05T04:45:18.514Z,99.90
2018-10-05T04:47:49.410Z,99.90
2018-10-05T04:50:19.628Z,99.90
2018-10-05T04:52:49.845Z,99.90
2018-10-05T04:55:20.092Z,99.90
2018-10-05T04:57:50.363Z,99.90
2018-10-05T05:00:20.348Z,99.90
2018-10-05T05:02:50.510Z,99.90
2018-10-05T05:05:21.144Z,99.90
2018-10-05T05:07:51.698Z,99.90
2018-10-05T05:10:22.044Z,99.90
2018-10-05T05:12:52.431Z,99.90
2018-10-05T05:15:23.184Z,99.90
2018-10-05T05:17:53.518Z,99.90
2018-10-05T05:20:24.040Z,99.90
2018-10-05T05:22:54.033Z,99.90
2018-10-05T05:25:24.226Z,99.90
2018-10-05T05:27:55.030Z,99.90
2018-10-05T05:30:25.317Z,99.90
2018-10-05T05:32:55.296Z,99.90
2018-10-05T05:35:25.489Z,99.90
2018-10-05T05:37:55.906Z,99.90
2018-10-05T05:40:25.847Z,99.90
2018-10-05T05:42:55.915Z,99.90
2018-10-05T05:45:26.237Z,99.90
2018-10-05T05:47:56.488Z,99.90
2018-10-05T05:50:26.858Z,99.90
2018-10-05T05:52:57.220Z,99.90
2018-10-05T05:55:27.245Z,99.90
2018-10-05T05:57:57.591Z,99.90
2018-10-05T06:00:28.251Z,99.90
2018-10-05T06:02:58.999Z,99.90
2018-10-05T06:05:29.950Z,99.90
2018-10-05T06:08:00.091Z,99.90
2018-10-05T06:10:30.008Z,99.90
2018-10-05T06:13:00.263Z,99.90
2018-10-05T06:15:30.267Z,99.90
2018-10-05T06:18:00.881Z,99.90
2018-10-05T06:20:30.842Z,99.90
2018-10-05T06:23:00.817Z,99.90
2018-10-05T06:25:30.834Z,99.90
2018-10-05T06:28:00.749Z,99.90
2018-10-05T06:30:32.356Z,99.90
2018-10-05T06:33:02.297Z,99.90
2018-10-05T06:35:32.669Z,99.90
2018-10-05T06:38:02.908Z,99.90
2018-10-05T06:40:33.087Z,99.90
2018-10-05T06:43:04.804Z,99.90
2018-10-05T06:45:40.428Z,99.90
2018-10-05T06:48:10.602Z,99.90
2018-10-05T06:50:40.744Z,99.90
2018-10-05T06:53:11.163Z,99.90
2018-10-05T06:55:41.358Z,99.90
2018-10-05T06:58:11.336Z,99.90
2018-10-05T07:00:41.304Z,99.90
2018-10-05T07:03:11.424Z,99.90
2018-10-05T07:05:41.828Z,99.90
2018-10-05T07:08:11.902Z,99.90
2018-10-05T07:10:42.048Z,99.90
2018-10-05T07:13:12.146Z,99.90
2018-10-05T07:15:42.219Z,99.90
2018-10-05T07:18:12.302Z,99.90
2018-10-05T07:20:42.478Z,99.90
2018-10-05T07:23:12.755Z,99.90
2018-10-05T07:25:43.211Z,99.90
2018-10-05T07:28:13.449Z,99.90
2018-10-05T07:30:43.810Z,99.90
2018-10-05T07:33:14.646Z,99.80
2018-10-05T07:35:45.286Z,98.50
2018-10-05T07:38:16.718Z,97.40
2018-10-05T07:40:47.740Z,96.10
2018-10-05T07:43:20.119Z,95.20
2018-10-05T07:45:51.046Z,94.70
2018-10-05T07:48:23.530Z,93.40
2018-10-05T07:50:55.117Z,93.00
2018-10-05T07:53:26.910Z,93.20
2018-10-05T07:55:59.454Z,91.40
2018-10-05T07:58:30.202Z,90.20
2018-10-05T08:01:01.256Z,90.30
2018-10-05T08:03:33.120Z,89.30
2018-10-05T08:06:04.420Z,89.10
2018-10-05T08:08:36.110Z,87.90
2018-10-05T08:11:07.952Z,87.60
2018-10-05T08:13:39.218Z,87.20
2018-10-05T08:16:11.044Z,86.80
2018-10-05T08:18:43.061Z,86.80
2018-10-05T08:21:14.550Z,86.20
2018-10-05T08:23:46.850Z,86.10
2018-10-05T08:26:17.508Z,85.00
2018-10-05T08:28:48.580Z,84.90
2018-10-05T08:31:21.120Z,84.80
2018-10-05T08:33:52.468Z,84.40
2018-10-05T08:36:24.077Z,83.80
2018-10-05T08:38:55.579Z,84.00
2018-10-05T08:41:26.636Z,83.70
2018-10-05T08:43:58.979Z,83.40
2018-10-05T08:46:30.448Z,83.10
2018-10-05T08:49:00.973Z,82.90
2018-10-05T08:51:32.127Z,82.90
2018-10-05T08:54:02.765Z,82.80
2018-10-05T08:56:34.377Z,83.00
2018-10-05T08:59:05.551Z,82.20
2018-10-05T09:01:37.026Z,82.10
2018-10-05T09:04:08.351Z,81.80
2018-10-05T09:06:39.177Z,81.80
2018-10-05T09:09:10.475Z,81.20
2018-10-05T09:11:42.097Z,80.60
2018-10-05T09:14:14.293Z,80.80
2018-10-05T09:16:45.401Z,80.30
2018-10-05T09:19:16.853Z,80.10
2018-10-05T09:21:47.760Z,80.00
2018-10-05T09:24:19.543Z,80.10
2018-10-05T09:26:51.032Z,79.50
2018-10-05T09:29:23.761Z,79.20
2018-10-05T09:31:54.423Z,79.60
2018-10-05T09:34:27.049Z,79.30
2018-10-05T09:36:58.034Z,78.70
2018-10-05T09:39:29.939Z,77.90
2018-10-05T09:42:01.100Z,78.30
2018-10-05T09:44:32.566Z,77.30
2018-10-05T09:47:04.326Z,77.40
2018-10-05T09:49:35.781Z,77.00
2018-10-05T09:52:07.820Z,76.80
2018-10-05T09:54:39.467Z,76.80
2018-10-05T09:57:11.151Z,77.00
2018-10-05T09:59:42.313Z,76.60
2018-10-05T10:02:24.177Z,76.50
2018-10-05T10:05:02.182Z,75.90
2018-10-05T10:07:33.088Z,75.20
2018-10-05T10:10:06.592Z,73.10
2018-10-05T10:12:38.872Z,69.60
2018-10-05T10:15:11.667Z,67.30
2018-10-05T10:17:43.353Z,64.60
2018-10-05T10:20:27.039Z,64.30
2018-10-05T10:23:00.875Z,62.60
2018-10-05T10:25:33.595Z,63.00
2018-10-05T10:28:04.736Z,62.90
2018-10-05T10:30:35.593Z,62.10
2018-10-05T10:33:07.127Z,62.90
2018-10-05T10:35:40.751Z,63.50
2018-10-05T10:38:11.909Z,63.10
2018-10-05T10:40:42.565Z,61.90
2018-10-05T10:43:20.071Z,61.30
2018-10-05T10:45:51.843Z,60.40
2018-10-05T10:48:22.683Z,60.30
2018-10-05T10:50:53.358Z,59.90
2018-10-05T10:53:27.992Z,59.10
2018-10-05T10:55:59.650Z,59.50
2018-10-05T10:58:32.765Z,58.40
2018-10-05T11:01:04.199Z,58.00
2018-10-05T11:03:35.433Z,57.60
2018-10-05T11:06:07.111Z,57.80
2018-10-05T11:08:38.348Z,57.10
2018-10-05T11:11:09.377Z,57.80
2018-10-05T11:13:40.416Z,57.70
2018-10-05T11:16:11.499Z,58.30
2018-10-05T11:18:45.706Z,57.40
2018-10-05T11:21:16.321Z,56.30
2018-10-05T11:23:47.935Z,56.90
2018-10-05T11:26:19.047Z,56.00
2018-10-05T11:28:50.282Z,56.10
2018-10-05T11:31:21.579Z,56.30
2018-10-05T11:33:52.250Z,56.10
2018-10-05T11:36:23.581Z,55.10
2018-10-05T11:38:54.424Z,55.00
2018-10-05T11:41:25.053Z,55.50
2018-10-05T11:43:55.999Z,55.30
2018-10-05T11:46:27.811Z,54.60
2018-10-05T11:48:59.313Z,54.40
2018-10-05T11:51:30.930Z,54.20
2018-10-05T11:54:04.205Z,53.90
2018-10-05T11:56:34.421Z,52.60
2018-10-05T11:59:05.459Z,54.20
2018-10-05T12:01:37.638Z,54.50
2018-10-05T12:04:08.228Z,54.50
2018-10-05T12:06:38.159Z,54.50
2018-10-05T12:09:09.681Z,53.40
2018-10-05T12:11:41.050Z,52.80
2018-10-05T12:14:11.840Z,52.10
2018-10-05T12:16:41.989Z,52.40
2018-10-05T12:19:13.020Z,52.60
2018-10-05T12:21:43.597Z,52.10
2018-10-05T12:24:13.532Z,51.20
2018-10-05T12:26:43.322Z,50.90
2018-10-05T12:29:13.718Z,51.30
2018-10-05T12:31:44.114Z,50.90
2018-10-05T12:34:15.118Z,51.80
2018-10-05T12:36:48.971Z,51.40
2018-10-05T12:39:19.566Z,51.30
2018-10-05T12:41:49.801Z,51.10
2018-10-05T12:44:19.716Z,51.20
2018-10-05T12:46:49.858Z,52.10
2018-10-05T12:49:20.136Z,52.80
2018-10-05T12:51:52.358Z,52.90
2018-10-05T12:54:22.265Z,52.40
2018-10-05T12:56:52.345Z,51.70
2018-10-05T12:59:23.525Z,51.60
2018-10-05T13:01:53.496Z,51.70
2018-10-05T13:04:23.551Z,51.90
2018-10-05T13:06:54.562Z,51.00
2018-10-05T13:09:24.695Z,50.80
2018-10-05T13:11:54.915Z,49.90
2018-10-05T13:14:24.705Z,49.10
2018-10-05T13:16:54.320Z,49.40
2018-10-05T13:19:26.461Z,49.60
2018-10-05T13:21:56.865Z,48.80
2018-10-05T13:24:34.051Z,48.70
2018-10-05T13:27:04.358Z,49.20
2018-10-05T13:29:35.364Z,49.10
2018-10-05T13:32:05.116Z,49.40
2018-10-05T13:34:35.274Z,49.10
2018-10-05T13:37:05.796Z,49.20
2018-10-05T13:39:35.353Z,48.00
2018-10-05T13:42:06.193Z,48.70
2018-10-05T13:44:36.293Z,49.40
2018-10-05T13:47:06.153Z,50.10
2018-10-05T13:49:36.356Z,50.00
2018-10-05T13:52:06.872Z,50.00
2018-10-05T13:54:36.994Z,50.50
2018-10-05T13:57:07.249Z,50.90
2018-10-05T13:59:38.360Z,50.40
2018-10-05T14:02:08.442Z,49.90
2018-10-05T14:04:39.955Z,49.70
2018-10-05T14:07:10.428Z,48.80
2018-10-05T14:09:40.264Z,48.60
2018-10-05T14:12:10.028Z,48.80
2018-10-05T14:14:41.272Z,48.30
2018-10-05T14:17:11.284Z,48.20
2018-10-05T14:19:41.518Z,48.70
2018-10-05T14:22:12.825Z,48.90
2018-10-05T14:24:42.786Z,48.60
2018-10-05T14:27:13.114Z,48.60
2018-10-05T14:29:43.107Z,48.40
2018-10-05T14:32:12.515Z,48.20
2018-10-05T14:34:45.300Z,48.30
2018-10-05T14:37:14.991Z,47.50
2018-10-05T14:39:45.050Z,47.60
2018-10-05T14:42:15.125Z,47.70
2018-10-05T14:44:45.022Z,49.10
2018-10-05T14:47:14.801Z,48.70
2018-10-05T14:49:44.779Z,48.50
2018-10-05T14:52:18.798Z,47.50
2018-10-05T14:54:48.866Z,47.90
2018-10-05T14:57:20.681Z,46.90
2018-10-05T14:59:51.516Z,47.10
2018-10-05T15:02:21.259Z,47.70
2018-10-05T15:04:51.439Z,47.80
2018-10-05T15:07:21.411Z,47.80
2018-10-05T15:09:50.911Z,47.70
2018-10-05T15:12:20.534Z,47.90
2018-10-05T15:14:50.531Z,48.30
2018-10-05T15:17:20.503Z,48.50
2018-10-05T15:19:50.557Z,48.00
2018-10-05T15:22:20.149Z,48.20
2018-10-05T15:24:49.980Z,48.20
2018-10-05T15:27:19.704Z,48.30
2018-10-05T15:29:50.140Z,48.70
2018-10-05T15:32:19.745Z,48.60
2018-10-05T15:34:49.806Z,49.10
2018-10-05T15:37:19.904Z,48.70
2018-10-05T15:39:49.997Z,49.10
2018-10-05T15:42:20.993Z,48.80
2018-10-05T15:44:50.938Z,48.90
2018-10-05T15:47:21.269Z,49.70
2018-10-05T15:49:51.125Z,50.90
2018-10-05T15:52:21.015Z,52.20
2018-10-05T15:54:51.327Z,53.90
2018-10-05T15:57:21.910Z,55.50
2018-10-05T15:59:52.051Z,57.00
2018-10-05T16:02:22.647Z,58.30
2018-10-05T16:04:54.076Z,59.30
2018-10-05T16:07:23.949Z,60.00
2018-10-05T16:09:55.014Z,60.90
2018-10-05T16:12:25.795Z,61.50
2018-10-05T16:14:56.153Z,62.00
2018-10-05T16:17:26.831Z,62.60
2018-10-05T16:19:57.090Z,63.10
2018-10-05T16:22:27.660Z,63.20
2018-10-05T16:24:57.708Z,61.80
2018-10-05T16:27:27.974Z,60.30
2018-10-05T16:29:58.256Z,59.40
2018-10-05T16:32:29.093Z,58.50
2018-10-05T16:34:59.760Z,57.80
2018-10-05T16:37:29.850Z,58.50
2018-10-05T16:40:00.298Z,59.40
2018-10-05T16:42:30.691Z,60.90
2018-10-05T16:45:00.918Z,62.60
2018-10-05T16:47:31.140Z,63.50
2018-10-05T16:50:02.523Z,64.50
2018-10-05T16:52:32.868Z,65.50
2018-10-05T16:55:03.689Z,66.60
2018-10-05T16:57:34.194Z,67.70
2018-10-05T17:00:04.171Z,68.30
2018-10-05T17:02:34.380Z,69.30
2018-10-05T17:05:04.938Z,70.50
2018-10-05T17:07:35.018Z,71.10
2018-10-05T17:10:06.915Z,72.10
2018-10-05T17:12:37.058Z,73.30
2018-10-05T17:15:07.919Z,74.40
2018-10-05T17:17:38.251Z,75.30
2018-10-05T17:20:08.472Z,76.40
2018-10-05T17:22:38.250Z,77.20
2018-10-05T17:25:07.952Z,77.30
2018-10-05T17:27:38.090Z,77.60
2018-10-05T17:30:08.139Z,78.60
2018-10-05T17:32:38.237Z,79.50
2018-10-05T17:35:08.019Z,80.00
2018-10-05T17:37:38.436Z,81.00
2018-10-05T17:40:09.005Z,81.70
2018-10-05T17:42:38.898Z,82.10
2018-10-05T17:45:08.595Z,82.90
2018-10-05T17:47:39.807Z,83.70
2018-10-05T17:50:09.888Z,84.30
2018-10-05T17:52:39.977Z,85.10
2018-10-05T17:55:09.968Z,85.50
2018-10-05T17:57:39.566Z,86.20
2018-10-05T18:00:10.342Z,86.20
2018-10-05T18:02:40.768Z,86.70
2018-10-05T18:05:11.376Z,87.30
2018-10-05T18:07:42.276Z,87.00
2018-10-05T18:10:12.004Z,87.60
2018-10-05T18:12:41.930Z,87.80
2018-10-05T18:15:11.584Z,88.60
2018-10-05T18:17:41.475Z,88.90
2018-10-05T18:20:18.652Z,89.20
2018-10-05T18:22:49.032Z,89.70
2018-10-05T18:25:24.934Z,90.00
2018-10-05T18:27:55.208Z,90.50
2018-10-05T18:30:25.380Z,91.00
2018-10-05T18:32:56.074Z,91.20
2018-10-05T18:35:25.932Z,91.60
2018-10-05T18:37:56.530Z,91.90
2018-10-05T18:40:26.327Z,92.00
2018-10-05T18:42:58.620Z,92.50
2018-10-05T18:45:28.465Z,91.70
2018-10-05T18:47:59.191Z,91.80
2018-10-05T18:50:35.113Z,92.00
2018-10-05T18:53:05.028Z,92.40
2018-10-05T18:55:38.567Z,92.70
2018-10-05T18:58:08.453Z,93.10
2018-10-05T19:00:38.205Z,93.50
2018-10-05T19:03:09.395Z,93.20
2018-10-05T19:05:39.142Z,93.20
2018-10-05T19:08:09.237Z,93.40
2018-10-05T19:10:39.183Z,93.50
2018-10-05T19:13:08.843Z,93.60
2018-10-05T19:15:38.765Z,93.60
2018-10-05T19:18:08.563Z,93.50
2018-10-05T19:20:38.812Z,92.80
2018-10-05T19:23:08.602Z,92.50
2018-10-05T19:25:38.605Z,91.60
2018-10-05T19:28:11.590Z,91.10
2018-10-05T19:30:41.656Z,90.40
2018-10-05T19:33:13.388Z,90.20
2018-10-05T19:35:44.608Z,89.90
2018-10-05T19:38:15.081Z,89.70
2018-10-05T19:40:46.111Z,89.50
2018-10-05T19:43:16.848Z,89.30
2018-10-05T19:45:47.172Z,88.80
2018-10-05T19:48:17.758Z,88.50
2018-10-05T19:50:48.260Z,88.40
2018-10-05T19:53:18.226Z,88.30
2018-10-05T19:55:51.146Z,88.00
2018-10-05T19:58:21.809Z,88.30
2018-10-05T20:00:52.924Z,88.30
2018-10-05T20:03:23.775Z,88.20
2018-10-05T20:05:54.099Z,88.40
2018-10-05T20:08:25.229Z,88.30
2018-10-05T20:10:56.316Z,88.50
2018-10-05T20:13:26.983Z,88.60
2018-10-05T20:15:57.651Z,88.40
2018-10-05T20:18:28.727Z,88.40
2018-10-05T20:21:00.093Z,88.60
2018-10-05T20:23:30.615Z,88.60
2018-10-05T20:26:01.645Z,88.80
2018-10-05T20:28:32.771Z,88.90
2018-10-05T20:31:04.694Z,89.30
2018-10-05T20:33:35.573Z,89.30
2018-10-05T20:36:07.011Z,89.50
2018-10-05T20:38:38.034Z,89.80
2018-10-05T20:41:08.716Z,90.40
2018-10-05T20:43:41.872Z,90.90
2018-10-05T20:46:13.373Z,91.40
2018-10-05T20:48:44.368Z,91.50
2018-10-05T20:51:18.715Z,91.30
2018-10-05T20:53:48.727Z,91.10
2018-10-05T20:56:20.125Z,90.90
2018-10-05T20:58:51.841Z,90.70
2018-10-05T21:01:23.241Z,90.70
2018-10-05T21:03:53.225Z,90.80
2018-10-05T21:06:23.319Z,90.90
2018-10-05T21:08:53.955Z,91.00
2018-10-05T21:11:28.176Z,90.90
2018-10-05T21:13:57.985Z,90.90
2018-10-05T21:16:32.962Z,91.10
2018-10-05T21:19:03.804Z,91.50
2018-10-05T21:21:33.689Z,91.80
2018-10-05T21:24:05.953Z,91.60
2018-10-05T21:26:35.599Z,91.80
2018-10-05T21:29:06.517Z,92.20
2018-10-05T21:31:36.084Z,92.30
2018-10-05T21:34:07.029Z,92.40
2018-10-05T21:36:36.797Z,92.80
2018-10-05T21:39:08.964Z,93.50
2018-10-05T21:41:39.299Z,93.40
2018-10-05T21:44:09.251Z,93.50
2018-10-05T21:46:39.203Z,93.50
2018-10-05T21:49:09.249Z,93.10
2018-10-05T21:51:39.450Z,93.40
2018-10-05T21:54:16.185Z,93.60
2018-10-05T21:56:46.020Z,93.80
2018-10-05T21:59:15.688Z,94.40
2018-10-05T22:01:46.396Z,94.80
2018-10-05T22:04:16.964Z,95.10
2018-10-05T22:06:47.448Z,95.30
2018-10-05T22:09:17.851Z,95.60
2018-10-05T22:11:54.397Z,95.40
2018-10-05T22:14:24.939Z,95.60
2018-10-05T22:16:55.788Z,95.70
2018-10-05T22:19:27.328Z,96.00
2018-10-05T22:21:57.796Z,95.90
2018-10-05T22:24:28.215Z,96.10
2018-10-05T22:26:59.673Z,96.30
2018-10-05T22:29:30.851Z,96.60
2018-10-05T22:32:02.130Z,96.60
2018-10-05T22:34:32.458Z,96.50
2018-10-05T22:37:03.074Z,96.30
2018-10-05T22:39:34.245Z,96.20
2018-10-05T22:42:05.070Z,96.50
2018-10-05T22:44:35.551Z,96.90
2018-10-05T22:47:08.430Z,97.30
2018-10-05T22:49:38.854Z,97.50
2018-10-05T22:52:15.465Z,98.00
2018-10-05T22:54:46.133Z,97.80
2018-10-05T22:57:17.415Z,98.20
2018-10-05T22:59:48.251Z,98.60
2018-10-05T23:02:19.188Z,99.00
2018-10-05T23:04:50.259Z,98.80
2018-10-05T23:07:20.500Z,99.10
2018-10-05T23:09:51.237Z,99.00
2018-10-05T23:12:21.844Z,99.00
2018-10-05T23:14:52.686Z,99.30
2018-10-05T23:17:23.306Z,99.50
2018-10-05T23:19:53.703Z,99.90
2018-10-05T23:22:24.738Z,99.90
2018-10-05T23:24:55.183Z,99.90
2018-10-05T23:27:25.640Z,99.90
2018-10-05T23:29:55.430Z,99.90
2018-10-05T23:32:26.282Z,99.90
2018-10-05T23:34:56.828Z,99.90
2018-10-05T23:37:27.247Z,99.90
2018-10-05T23:39:57.552Z,99.90
2018-10-05T23:42:31.447Z,99.90
2018-10-05T23:45:01.589Z,99.90
2018-10-05T23:47:41.522Z,99.90
2018-10-05T23:50:12.558Z,99.90
2018-10-05T23:52:49.309Z,99.90
2018-10-05T23:55:20.732Z,99.90
2018-10-05T23:57:51.892Z,99.90
